Time,TemperatureF,DewpointF,PressureIn,WindDirection,WindDirectionDegrees,WindSpeedMPH,WindSpeedGustMPH,Humidity,HourlyPrecipIn,Conditions,Clouds,dailyrainin,SoftwareType,DateUTC
2014-01-18 00:11:00,26.0,2.0,30.22,NNE,16,0.0,0.0,35,0.00,,,0.00,,2014-01-18 08:11:00,
2014-01-18 00:21:00,25.0,-1.0,30.22,NNE,16,0.0,0.0,31,0.00,,,0.00,,2014-01-18 08:21:00,
2014-01-18 00:42:00,25.0,0.0,30.22,NNE,16,0.0,0.0,33,0.00,,,0.00,,2014-01-18 08:42:00,
2014-01-18 00:52:00,25.0,-1.0,30.22,NNE,16,0.0,0.0,31,0.00,,,0.00,,2014-01-18 08:52:00,
2014-01-18 01:21:00,25.0,-1.0,30.22,NNE,16,0.0,0.0,31,0.00,,,0.00,,2014-01-18 09:21:00,
2014-01-18 01:43:00,25.0,-3.0,30.22,NNE,16,0.0,0.0,28,0.00,,,0.00,,2014-01-18 09:43:00,
2014-01-18 01:53:00,25.0,-3.0,30.22,NNE,16,0.0,0.0,28,0.00,,,0.00,,2014-01-18 09:53:00,
2014-01-18 02:23:00,25.0,-4.0,30.22,NNE,16,0.0,0.0,27,0.00,,,0.00,,2014-01-18 10:23:00,
2014-01-18 02:53:00,25.0,-3.0,30.22,NNE,16,0.0,0.0,29,0.00,,,0.00,,2014-01-18 10:53:00,
2014-01-18 03:11:00,25.0,-2.0,30.22,NNE,16,0.0,0.0,30,0.00,,,0.00,,2014-01-18 11:11:00,
2014-01-18 03:21:00,25.0,-2.0,30.21,NNE,16,0.0,0.0,30,0.00,,,0.00,,2014-01-18 11:21:00,
2014-01-18 03:42:00,25.0,-2.0,30.21,NNE,16,0.0,0.0,30,0.00,,,0.00,,2014-01-18 11:42:00,
2014-01-18 03:52:00,25.0,-2.0,30.21,NNE,16,0.0,0.0,30,0.00,,,0.00,,2014-01-18 11:52:00,
2014-01-18 04:11:00,24.0,-4.0,30.21,NNE,16,0.0,0.0,28,0.00,,,0.00,,2014-01-18 12:11:00,
2014-01-18 04:21:00,25.0,-3.0,30.21,NNE,16,0.0,0.0,28,0.00,,,0.00,,2014-01-18 12:21:00,
2014-01-18 04:52:00,26.0,-3.0,30.21,NNE,16,0.0,0.0,28,0.00,,,0.00,,2014-01-18 12:52:00,
2014-01-18 05:21:00,27.0,-6.0,30.20,NNE,16,0.0,0.0,23,0.00,,,0.00,,2014-01-18 13:21:00,
2014-01-18 05:42:00,27.0,-7.0,30.21,NNE,16,0.0,0.0,22,0.00,,,0.00,,2014-01-18 13:42:00,
2014-01-18 05:52:00,27.0,-8.0,30.21,NNE,16,0.0,0.0,21,0.00,,,0.00,,2014-01-18 13:52:00,
2014-01-18 06:21:00,27.0,-7.0,30.21,NNE,16,0.0,0.0,22,0.00,,,0.00,,2014-01-18 14:21:00,
2014-01-18 06:42:00,26.0,-9.0,30.21,NNE,16,0.0,0.0,21,0.00,,,0.00,,2014-01-18 14:42:00,
2014-01-18 06:52:00,26.0,-9.0,30.22,NNE,16,0.0,0.0,20,0.00,,,0.00,,2014-01-18 14:52:00,
2014-01-18 07:21:00,26.0,-9.0,30.22,NNE,16,0.0,0.0,20,0.00,,,0.00,,2014-01-18 15:21:00,
2014-01-18 07:43:00,26.0,-9.0,30.22,NNE,16,0.0,0.0,20,0.00,,,0.00,,2014-01-18 15:43:00,
2014-01-18 07:53:00,25.0,-10.0,30.22,NNE,16,0.0,0.0,20,0.00,,,0.00,,2014-01-18 15:53:00,
2014-01-18 08:13:00,26.0,-8.0,30.22,NNE,16,0.0,0.0,22,0.00,,,0.00,,2014-01-18 16:13:00,
2014-01-18 08:23:00,31.0,-5.0,30.22,NNE,16,0.0,0.0,20,0.00,,,0.00,,2014-01-18 16:23:00,
2014-01-18 08:43:00,33.0,-6.0,30.22,NNE,16,0.0,0.0,18,0.00,,,0.00,,2014-01-18 16:43:00,
2014-01-18 08:52:00,40.0,-7.0,30.23,NNE,16,0.0,0.0,13,0.00,,,0.00,,2014-01-18 16:52:00,
2014-01-18 09:12:00,41.0,-6.0,30.23,NNE,16,0.0,0.0,13,0.00,,,0.00,,2014-01-18 17:12:00,
2014-01-18 09:22:00,41.0,-6.0,30.23,NNE,16,0.0,0.0,13,0.00,,,0.00,,2014-01-18 17:22:00,
2014-01-18 09:33:00,41.0,-6.0,30.23,NNE,16,0.0,0.0,13,0.00,,,0.00,,2014-01-18 17:33:00,
2014-01-18 09:42:00,41.0,-6.0,30.23,NNE,16,0.0,0.0,13,0.00,,,0.00,,2014-01-18 17:42:00,
2014-01-18 09:52:00,48.0,-8.0,30.24,NNE,16,0.0,0.0,9,0.00,,,0.00,,2014-01-18 17:52:00,
2014-01-18 10:12:00,50.0,-4.0,30.25,NE,41,1.0,2.0,10,0.00,,,0.00,,2014-01-18 18:12:00,
2014-01-18 10:21:00,51.0,-4.0,30.25,NE,35,0.0,0.0,10,0.00,,,0.00,,2014-01-18 18:21:00,
2014-01-18 10:52:00,56.0,-2.0,30.24,NE,48,1.0,6.0,9,0.00,,,0.00,,2014-01-18 18:52:00,
2014-01-18 11:21:00,58.0,0.0,30.24,ENE,73,0.0,3.0,9,0.00,,,0.00,,2014-01-18 19:21:00,
2014-01-18 11:42:00,57.0,-6.0,30.23,NNE,21,0.0,6.0,7,0.00,,,0.00,,2014-01-18 19:42:00,
2014-01-18 11:52:00,58.0,-9.0,30.22,NE,51,1.0,1.0,6,0.00,,,0.00,,2014-01-18 19:52:00,
2014-01-18 12:11:00,59.0,-8.0,30.22,North,8,1.0,5.0,6,0.00,,,0.00,,2014-01-18 20:11:00,
2014-01-18 12:21:00,59.0,-8.0,30.21,North,357,0.0,6.0,6,0.00,,,0.00,,2014-01-18 20:21:00,
2014-01-18 12:52:00,59.0,-5.0,30.20,NNE,14,3.0,6.0,7,0.00,,,0.00,,2014-01-18 20:52:00,
2014-01-18 13:12:00,60.0,-1.0,30.20,North,1,0.0,4.0,8,0.00,,,0.00,,2014-01-18 21:12:00,
2014-01-18 13:21:00,60.0,-4.0,30.19,NNE,16,1.0,5.0,7,0.00,,,0.00,,2014-01-18 21:21:00,
2014-01-18 13:43:00,59.0,-2.0,30.19,NE,52,0.0,4.0,8,0.00,,,0.00,,2014-01-18 21:43:00,
2014-01-18 13:53:00,59.0,-2.0,30.19,NE,45,0.0,2.0,8,0.00,,,0.00,,2014-01-18 21:53:00,
2014-01-18 14:22:00,59.0,0.0,30.18,NNE,14,1.0,10.0,9,0.00,,,0.00,,2014-01-18 22:22:00,
2014-01-18 14:53:00,58.0,0.0,30.18,NE,49,0.0,0.0,9,0.00,,,0.00,,2014-01-18 22:53:00,
2014-01-18 15:22:00,58.0,0.0,30.18,NNE,14,0.0,6.0,9,0.00,,,0.00,,2014-01-18 23:22:00,
2014-01-18 15:42:00,58.0,0.0,30.18,NE,35,1.0,6.0,9,0.00,,,0.00,,2014-01-18 23:42:00,
2014-01-18 15:52:00,57.0,-1.0,30.18,NE,38,0.0,3.0,9,0.00,,,0.00,,2014-01-18 23:52:00,
2014-01-18 16:11:00,56.0,-2.0,30.18,NNE,17,0.0,5.0,9,0.00,,,0.00,,2014-01-19 00:11:00,
2014-01-18 16:21:00,55.0,-1.0,30.18,NNE,18,0.0,1.0,10,0.00,,,0.00,,2014-01-19 00:21:00,
2014-01-18 16:42:00,55.0,-1.0,30.19,NNE,18,0.0,0.0,10,0.00,,,0.00,,2014-01-19 00:42:00,
2014-01-18 16:52:00,52.0,-1.0,30.19,NNE,18,0.0,0.0,11,0.00,,,0.00,,2014-01-19 00:52:00,
2014-01-18 17:21:00,50.0,-2.0,30.19,NNE,18,0.0,0.0,11,0.00,,,0.00,,2014-01-19 01:21:00,
2014-01-18 17:42:00,49.0,0.0,30.19,NNE,18,0.0,0.0,13,0.00,,,0.00,,2014-01-19 01:42:00,
2014-01-18 17:52:00,46.0,2.0,30.19,NNE,18,0.0,0.0,16,0.00,,,0.00,,2014-01-19 01:52:00,
2014-01-18 18:11:00,45.0,2.0,30.19,NNE,18,0.0,0.0,16,0.00,,,0.00,,2014-01-19 02:11:00,
2014-01-18 18:22:00,42.0,-1.0,30.20,NNE,18,0.0,0.0,16,0.00,,,0.00,,2014-01-19 02:22:00,
2014-01-18 18:52:00,39.0,4.0,30.21,NNE,18,0.0,0.0,23,0.00,,,0.00,,2014-01-19 02:52:00,
2014-01-18 19:11:00,38.0,4.0,30.21,NNE,18,0.0,0.0,23,0.00,,,0.00,,2014-01-19 03:11:00,
2014-01-18 19:22:00,37.0,3.0,30.21,NNE,18,0.0,0.0,23,0.00,,,0.00,,2014-01-19 03:22:00,
2014-01-18 19:42:00,37.0,3.0,30.21,NNE,18,0.0,0.0,23,0.00,,,0.00,,2014-01-19 03:42:00,
2014-01-18 19:53:00,36.0,4.0,30.21,NNE,18,0.0,0.0,25,0.00,,,0.00,,2014-01-19 03:53:00,
2014-01-18 20:02:00,-999.0,-99.9,30.21,NNE,18,0.0,0.0,-999,0.00,,,0.00,,2014-01-19 04:02:00,
2014-01-18 20:23:00,35.0,3.0,30.21,NNE,18,0.0,0.0,25,0.00,,,0.00,,2014-01-19 04:23:00,
2014-01-18 20:52:00,32.0,3.0,30.22,NNE,18,0.0,0.0,28,0.00,,,0.00,,2014-01-19 04:52:00,
2014-01-18 21:22:00,32.0,3.0,30.22,NNE,18,0.0,0.0,28,0.00,,,0.00,,2014-01-19 05:22:00,
2014-01-18 21:43:00,31.0,2.0,30.22,NNE,18,0.0,0.0,28,0.00,,,0.00,,2014-01-19 05:43:00,
2014-01-18 21:52:00,30.0,2.0,30.22,NNE,18,0.0,0.0,30,0.00,,,0.00,,2014-01-19 05:52:00,
2014-01-18 22:12:00,30.0,2.0,30.22,NNE,18,0.0,0.0,30,0.00,,,0.00,,2014-01-19 06:12:00,
2014-01-18 22:21:00,29.0,1.0,30.22,NNE,18,0.0,0.0,30,0.00,,,0.00,,2014-01-19 06:21:00,
2014-01-18 22:42:00,29.0,1.0,30.22,NNE,18,0.0,0.0,30,0.00,,,0.00,,2014-01-19 06:42:00,
2014-01-18 22:52:00,29.0,1.0,30.22,NNE,18,0.0,0.0,30,0.00,,,0.00,,2014-01-19 06:52:00,
2014-01-18 23:11:00,27.0,0.0,30.22,NNE,18,0.0,0.0,30,0.00,,,0.00,,2014-01-19 07:11:00,
2014-01-18 23:21:00,27.0,5.0,30.22,NNE,18,0.0,0.0,38,0.00,,,0.00,,2014-01-19 07:21:00,
2014-01-18 23:52:00,27.0,6.0,30.22,NNE,18,0.0,0.0,40,0.00,,,0.00,,2014-01-19 07:52:00,